createdAt,value
2018-02-25T00:01:37.687Z,103307.00
2018-02-25T00:04:06.294Z,103308.89
2018-02-25T00:06:34.856Z,103309.93
2018-02-25T00:09:03.556Z,103304.78
2018-02-25T00:11:32.119Z,103315.27
2018-02-25T00:14:00.649Z,103312.27
2018-02-25T00:16:29.348Z,103313.13
2018-02-25T00:18:57.907Z,103310.17
2018-02-25T00:21:27.703Z,103301.37
2018-02-25T00:23:56.210Z,103299.61
2018-02-25T00:26:24.691Z,103304.14
2018-02-25T00:28:54.241Z,103308.83
2018-02-25T00:31:22.679Z,103299.72
2018-02-25T00:33:51.117Z,103303.18
2018-02-25T00:36:19.610Z,103312.61
2018-02-25T00:38:48.023Z,103313.20
2018-02-25T00:41:16.469Z,103307.03
2018-02-25T00:43:44.935Z,103306.06
2018-02-25T00:46:13.427Z,103305.62
2018-02-25T00:48:41.941Z,103311.00
2018-02-25T00:51:10.472Z,103302.73
2018-02-25T00:53:38.897Z,103299.12
2018-02-25T00:56:07.450Z,103298.22
2018-02-25T00:58:36.230Z,103300.55
2018-02-25T01:01:04.734Z,103297.84
2018-02-25T01:03:33.288Z,103296.36
2018-02-25T01:06:03.062Z,103301.66
2018-02-25T01:08:31.527Z,103298.95
2018-02-25T01:11:00.072Z,103293.48
2018-02-25T01:13:28.750Z,103296.16
2018-02-25T01:15:57.163Z,103296.28
2018-02-25T01:18:25.600Z,103305.15
2018-02-25T01:20:54.188Z,103308.14
2018-02-25T01:23:22.600Z,103303.84
2018-02-25T01:25:51.099Z,103309.98
2018-02-25T01:28:19.624Z,103305.56
2018-02-25T01:30:48.112Z,103309.53
2018-02-25T01:33:16.530Z,103305.64
2018-02-25T01:35:45.009Z,103309.72
2018-02-25T01:38:13.431Z,103300.89
2018-02-25T01:40:41.867Z,103300.09
2018-02-25T01:43:10.326Z,103301.02
2018-02-25T01:45:38.837Z,103306.22
2018-02-25T01:48:07.304Z,103306.06
2018-02-25T01:50:47.678Z,103308.67
2018-02-25T01:53:16.144Z,103306.25
2018-02-25T01:55:44.568Z,103301.36
2018-02-25T01:58:13.021Z,103298.65
2018-02-25T02:00:41.455Z,103307.27
2018-02-25T02:03:09.908Z,103302.98
2018-02-25T02:05:39.231Z,103301.22
2018-02-25T02:08:07.672Z,103300.59
2018-02-25T02:10:36.192Z,103296.65
2018-02-25T02:13:04.668Z,103299.80
2018-02-25T02:15:33.322Z,103295.20
2018-02-25T02:18:01.838Z,103294.31
2018-02-25T02:20:30.758Z,103293.55
2018-02-25T02:22:59.313Z,103291.18
2018-02-25T02:25:27.785Z,103286.53
2018-02-25T02:27:56.372Z,103289.69
2018-02-25T02:30:25.201Z,103295.58
2018-02-25T02:32:53.624Z,103291.83
2018-02-25T02:35:22.198Z,103294.00
2018-02-25T02:37:50.653Z,103295.38
2018-02-25T02:40:19.090Z,103300.33
2018-02-25T02:42:47.777Z,103303.45
2018-02-25T02:45:16.252Z,103309.20
2018-02-25T02:47:44.750Z,103301.66
2018-02-25T02:50:13.933Z,103308.22
2018-02-25T02:52:42.801Z,103310.58
2018-02-25T02:55:11.260Z,103315.94
2018-02-25T02:57:40.414Z,103308.09
2018-02-25T03:00:08.936Z,103314.14
2018-02-25T03:02:40.939Z,103309.12
2018-02-25T03:05:09.538Z,103303.44
2018-02-25T03:07:38.027Z,103296.03
2018-02-25T03:10:06.485Z,103296.45
2018-02-25T03:12:34.964Z,103296.95
2018-02-25T03:15:03.663Z,103299.70
2018-02-25T03:17:32.260Z,103291.55
2018-02-25T03:20:00.816Z,103297.05
2018-02-25T03:22:29.510Z,103290.10
2018-02-25T03:24:58.103Z,103292.55
2018-02-25T03:27:27.159Z,103287.90
2018-02-25T03:29:55.645Z,103293.71
2018-02-25T03:32:24.078Z,103289.42
2018-02-25T03:34:53.458Z,103288.19
2018-02-25T03:37:22.874Z,103290.56
2018-02-25T03:39:51.291Z,103286.84
2018-02-25T03:42:19.745Z,103290.42
2018-02-25T03:47:15.869Z,103287.63
2018-02-25T03:49:44.402Z,103297.63
2018-02-25T03:52:12.874Z,103290.03
2018-02-25T03:54:41.337Z,103284.87
2018-02-25T03:57:10.217Z,103289.67
2018-02-25T03:59:38.906Z,103292.75
2018-02-25T04:02:07.425Z,103294.59
2018-02-25T04:04:36.026Z,103291.86
2018-02-25T04:07:04.490Z,103295.83
2018-02-25T04:09:33.014Z,103294.58
2018-02-25T04:12:01.846Z,103284.57
2018-02-25T04:14:30.302Z,103297.70
2018-02-25T04:16:58.802Z,103295.17
2018-02-25T04:19:28.136Z,103290.72
2018-02-25T04:21:56.649Z,103288.09
2018-02-25T04:24:25.103Z,103295.30
2018-02-25T04:26:53.589Z,103291.35
2018-02-25T04:29:22.045Z,103291.22
2018-02-25T04:31:50.472Z,103296.22
2018-02-25T04:34:18.949Z,103298.47
2018-02-25T04:36:47.381Z,103296.93
2018-02-25T04:39:15.819Z,103293.88
2018-02-25T04:41:44.302Z,103304.78
2018-02-25T04:44:13.132Z,103296.52
2018-02-25T04:46:41.560Z,103290.61
2018-02-25T04:49:10.042Z,103287.64
2018-02-25T04:51:38.752Z,103288.38
2018-02-25T04:54:08.209Z,103290.98
2018-02-25T04:56:36.984Z,103289.12
2018-02-25T04:59:05.925Z,103292.95
2018-02-25T05:01:34.391Z,103289.81
2018-02-25T05:04:03.305Z,103289.45
2018-02-25T05:06:31.994Z,103284.63
2018-02-25T05:09:00.732Z,103282.76
2018-02-25T05:11:29.196Z,103280.54
2018-02-25T05:13:57.696Z,103284.14
2018-02-25T05:16:26.209Z,103293.83
2018-02-25T05:18:54.741Z,103283.97
2018-02-25T05:21:23.172Z,103274.45
2018-02-25T05:23:51.603Z,103277.03
2018-02-25T05:26:21.452Z,103275.41
2018-02-25T05:28:49.952Z,103275.80
2018-02-25T05:31:18.425Z,103283.95
2018-02-25T05:33:47.315Z,103281.23
2018-02-25T05:36:15.841Z,103276.07
2018-02-25T05:38:44.263Z,103273.70
2018-02-25T05:41:12.766Z,103276.01
2018-02-25T05:43:41.214Z,103277.32
2018-02-25T05:46:09.653Z,103279.72
2018-02-25T05:48:39.731Z,103284.89
2018-02-25T05:51:08.244Z,103293.84
2018-02-25T05:53:36.801Z,103281.83
2018-02-25T05:56:05.385Z,103285.56
2018-02-25T05:58:33.869Z,103290.59
2018-02-25T06:01:02.863Z,103288.96
2018-02-25T06:03:31.857Z,103283.06
2018-02-25T06:06:00.384Z,103282.72
2018-02-25T06:08:28.856Z,103285.81
2018-02-25T06:10:57.432Z,103297.06
2018-02-25T06:13:25.951Z,103296.17
2018-02-25T06:15:54.468Z,103299.20
2018-02-25T06:18:23.473Z,103301.39
2018-02-25T06:20:52.039Z,103309.33
2018-02-25T06:23:20.506Z,103307.10
2018-02-25T06:25:49.445Z,103303.83
2018-02-25T06:28:17.870Z,103310.92
2018-02-25T06:33:13.831Z,103303.47
2018-02-25T06:35:42.344Z,103306.56
2018-02-25T06:38:10.853Z,103306.02
2018-02-25T06:40:39.476Z,103306.46
2018-02-25T06:43:07.942Z,103305.31
2018-02-25T06:45:36.519Z,103302.49
2018-02-25T06:48:05.038Z,103307.84
2018-02-25T06:50:33.885Z,103299.31
2018-02-25T06:53:02.468Z,103303.89
2018-02-25T06:55:31.051Z,103310.38
2018-02-25T06:57:59.527Z,103305.39
2018-02-25T07:00:27.972Z,103300.80
2018-02-25T07:02:57.930Z,103305.63
2018-02-25T07:05:26.405Z,103305.24
2018-02-25T07:07:55.174Z,103305.38
2018-02-25T07:10:24.396Z,103307.27
2018-02-25T07:12:52.832Z,103305.58
2018-02-25T07:15:21.308Z,103307.04
2018-02-25T07:17:49.772Z,103309.27
2018-02-25T07:20:18.205Z,103306.72
2018-02-25T07:22:46.637Z,103309.11
2018-02-25T07:25:15.538Z,103310.47
2018-02-25T07:27:44.002Z,103307.56
2018-02-25T07:30:12.435Z,103308.86
2018-02-25T07:32:41.018Z,103305.78
2018-02-25T07:35:09.475Z,103299.77
2018-02-25T07:37:37.929Z,103304.75
2018-02-25T07:40:06.615Z,103296.44
2018-02-25T07:42:35.201Z,103304.48
2018-02-25T07:45:03.805Z,103307.51
2018-02-25T07:47:32.536Z,103306.91
2018-02-25T07:50:01.073Z,103307.27
2018-02-25T07:52:29.906Z,103303.78
2018-02-25T07:54:58.418Z,103304.86
2018-02-25T07:57:27.762Z,103312.59
2018-02-25T07:59:56.530Z,103312.52
2018-02-25T08:02:25.151Z,103298.34
2018-02-25T08:04:53.749Z,103303.24
2018-02-25T08:07:22.209Z,103301.08
2018-02-25T08:09:51.622Z,103297.61
2018-02-25T08:12:20.056Z,103302.52
2018-02-25T08:14:48.477Z,103298.70
2018-02-25T08:17:16.993Z,103308.91
2018-02-25T08:19:45.427Z,103297.14
2018-02-25T08:22:13.994Z,103310.72
2018-02-25T08:24:42.764Z,103300.79
2018-02-25T08:27:11.372Z,103303.99
2018-02-25T08:29:39.792Z,103306.19
2018-02-25T08:32:08.360Z,103304.95
2018-02-25T08:34:37.185Z,103308.13
2018-02-25T08:37:05.728Z,103308.01
2018-02-25T08:39:38.665Z,103304.65
2018-02-25T08:42:07.252Z,103305.81
2018-02-25T08:44:35.660Z,103303.56
2018-02-25T08:47:04.925Z,103297.01
2018-02-25T08:49:33.411Z,103305.14
2018-02-25T08:52:01.937Z,103296.60
2018-02-25T08:54:30.570Z,103302.62
2018-02-25T08:56:59.058Z,103298.98
2018-02-25T08:59:28.691Z,103299.99
2018-02-25T09:01:57.289Z,103300.20
2018-02-25T09:04:26.063Z,103301.96
2018-02-25T09:06:54.541Z,103304.61
2018-02-25T09:09:23.519Z,103297.20
2018-02-25T09:11:52.098Z,103293.09
2018-02-25T09:14:20.689Z,103301.64
2018-02-25T09:16:49.658Z,103294.23
2018-02-25T09:19:18.104Z,103292.09
2018-02-25T09:21:46.545Z,103295.42
2018-02-25T09:24:15.021Z,103295.11
2018-02-25T09:26:43.481Z,103283.87
2018-02-25T09:29:12.098Z,103290.48
2018-02-25T09:31:41.508Z,103298.27
2018-02-25T09:34:13.149Z,103295.73
2018-02-25T09:36:41.775Z,103297.61
2018-02-25T09:39:14.887Z,103300.59
2018-02-25T09:41:43.390Z,103291.38
2018-02-25T09:44:11.825Z,103299.45
2018-02-25T09:46:40.309Z,103296.47
2018-02-25T09:49:08.904Z,103299.79
2018-02-25T09:51:37.640Z,103300.63
2018-02-25T09:54:06.506Z,103307.84
2018-02-25T09:56:35.018Z,103310.78
2018-02-25T09:59:03.463Z,103303.92
2018-02-25T10:01:32.766Z,103294.20
2018-02-25T10:04:01.490Z,103296.66
2018-02-25T10:06:30.501Z,103293.98
2018-02-25T10:08:58.989Z,103297.70
2018-02-25T10:11:27.426Z,103299.36
2018-02-25T10:13:55.910Z,103299.11
2018-02-25T10:16:24.532Z,103301.39
2018-02-25T10:18:52.942Z,103293.81
2018-02-25T10:21:21.442Z,103305.53
2018-02-25T10:23:49.916Z,103292.38
2018-02-25T10:26:18.325Z,103292.99
2018-02-25T10:28:46.967Z,103289.03
2018-02-25T10:31:15.432Z,103288.38
2018-02-25T10:33:45.336Z,103285.45
2018-02-25T10:36:24.753Z,103288.03
2018-02-25T10:38:53.513Z,103281.98
2018-02-25T10:41:21.983Z,103284.61
2018-02-25T10:43:50.793Z,103284.02
2018-02-25T10:46:19.197Z,103275.69
2018-02-25T10:48:47.616Z,103271.80
2018-02-25T10:51:16.935Z,103274.34
2018-02-25T10:53:45.369Z,103266.80
2018-02-25T10:56:13.792Z,103261.47
2018-02-25T10:58:42.755Z,103261.91
2018-02-25T11:01:11.527Z,103258.31
2018-02-25T11:03:40.154Z,103259.83
2018-02-25T11:06:08.744Z,103259.00
2018-02-25T11:08:37.266Z,103254.50
2018-02-25T11:11:05.950Z,103255.59
2018-02-25T11:13:34.791Z,103250.27
2018-02-25T11:16:04.265Z,103250.20
2018-02-25T11:18:32.749Z,103245.78
2018-02-25T11:21:01.274Z,103241.51
2018-02-25T11:23:30.150Z,103244.47
2018-02-25T11:25:58.673Z,103253.64
2018-02-25T11:28:27.232Z,103254.56
2018-02-25T11:30:55.742Z,103253.98
2018-02-25T11:33:24.167Z,103249.64
2018-02-25T11:35:52.872Z,103246.11
2018-02-25T11:38:21.434Z,103256.86
2018-02-25T11:40:49.900Z,103252.84
2018-02-25T11:43:18.361Z,103247.13
2018-02-25T11:45:46.936Z,103241.23
2018-02-25T11:48:15.387Z,103239.98
2018-02-25T11:50:45.094Z,103234.67
2018-02-25T11:53:13.618Z,103232.73
2018-02-25T11:55:42.078Z,103234.65
2018-02-25T11:58:10.592Z,103230.14
2018-02-25T12:00:39.099Z,103230.67
2018-02-25T12:03:07.552Z,103238.20
2018-02-25T12:05:36.618Z,103234.50
2018-02-25T12:08:05.099Z,103231.86
2018-02-25T12:10:33.576Z,103225.95
2018-02-25T12:13:02.326Z,103229.73
2018-02-25T12:15:31.532Z,103231.99
2018-02-25T12:18:00.009Z,103232.86
2018-02-25T12:20:28.700Z,103226.98
2018-02-25T12:22:57.158Z,103230.11
2018-02-25T12:25:25.654Z,103228.54
2018-02-25T12:27:54.104Z,103230.31
2018-02-25T12:30:22.520Z,103232.41
2018-02-25T12:32:50.950Z,103235.19
2018-02-25T12:35:19.830Z,103239.13
2018-02-25T12:37:48.258Z,103234.95
2018-02-25T12:40:16.670Z,103236.97
2018-02-25T12:42:45.513Z,103231.20
2018-02-25T12:45:14.099Z,103234.73
2018-02-25T12:47:42.560Z,103231.60
2018-02-25T12:50:11.294Z,103235.22
2018-02-25T12:52:39.706Z,103232.61
2018-02-25T12:55:08.129Z,103227.28
2018-02-25T12:57:36.618Z,103224.05
2018-02-25T13:00:05.262Z,103217.61
2018-02-25T13:02:33.811Z,103217.94
2018-02-25T13:05:02.446Z,103219.89
2018-02-25T13:07:30.974Z,103216.00
2018-02-25T13:09:59.454Z,103211.91
2018-02-25T13:12:28.453Z,103217.61
2018-02-25T13:14:56.951Z,103216.89
2018-02-25T13:17:25.377Z,103216.00
2018-02-25T13:19:53.833Z,103218.52
2018-02-25T13:22:22.289Z,103214.78
2018-02-25T13:24:50.982Z,103212.99
2018-02-25T13:27:19.653Z,103221.53
2018-02-25T13:29:48.090Z,103211.02
2018-02-25T13:32:16.506Z,103218.65
2018-02-25T13:34:44.969Z,103208.06
2018-02-25T13:37:13.439Z,103210.11
2018-02-25T13:39:42.208Z,103207.13
2018-02-25T13:42:11.365Z,103203.06
2018-02-25T13:44:39.946Z,103198.61
2018-02-25T13:47:09.053Z,103198.20
2018-02-25T13:49:37.736Z,103198.17
2018-02-25T13:52:06.419Z,103204.95
2018-02-25T13:54:35.016Z,103195.75
2018-02-25T13:57:04.568Z,103204.59
2018-02-25T13:59:33.706Z,103195.41
2018-02-25T14:02:02.580Z,103206.47
2018-02-25T14:04:31.409Z,103203.73
2018-02-25T14:07:00.030Z,103193.88
2018-02-25T14:09:28.673Z,103192.35
2018-02-25T14:11:57.144Z,103188.91
2018-02-25T14:14:25.626Z,103188.17
2018-02-25T14:16:54.084Z,103192.83
2018-02-25T14:19:23.326Z,103188.31
2018-02-25T14:21:51.766Z,103184.77
2018-02-25T14:24:20.207Z,103183.44
2018-02-25T14:26:48.780Z,103183.11
2018-02-25T14:29:17.289Z,103185.45
2018-02-25T14:31:45.746Z,103186.88
2018-02-25T14:34:14.246Z,103183.94
2018-02-25T14:36:42.676Z,103180.77
2018-02-25T14:39:11.213Z,103183.42
2018-02-25T14:41:39.741Z,103175.27
2018-02-25T14:44:08.168Z,103189.23
2018-02-25T14:46:36.768Z,103184.48
2018-02-25T14:49:05.417Z,103184.42
2018-02-25T14:51:34.082Z,103187.52
2018-02-25T14:54:02.731Z,103186.59
2018-02-25T14:56:31.598Z,103184.75
2018-02-25T14:59:00.148Z,103183.53
2018-02-25T15:01:28.728Z,103180.30
2018-02-25T15:03:58.541Z,103187.55
2018-02-25T15:06:27.073Z,103183.06
2018-02-25T15:08:55.536Z,103184.62
2018-02-25T15:11:23.991Z,103178.58
2018-02-25T15:13:52.420Z,103186.78
2018-02-25T15:16:20.909Z,103183.81
2018-02-25T15:18:50.206Z,103181.54
2018-02-25T15:21:18.628Z,103184.53
2018-02-25T15:23:47.033Z,103181.04
2018-02-25T15:26:16.109Z,103188.84
2018-02-25T15:28:44.550Z,103186.49
2018-02-25T15:31:13.072Z,103179.68
2018-02-25T15:33:41.579Z,103171.61
2018-02-25T15:36:10.062Z,103182.33
2018-02-25T15:38:38.673Z,103180.16
2018-02-25T15:41:07.554Z,103182.33
2018-02-25T15:43:36.450Z,103175.23
2018-02-25T15:46:06.788Z,103175.37
2018-02-25T15:48:35.289Z,103179.14
2018-02-25T15:51:04.035Z,103176.11
2018-02-25T15:53:34.173Z,103174.34
2018-02-25T15:56:03.258Z,103173.36
2018-02-25T15:58:31.700Z,103176.20
2018-02-25T16:01:00.841Z,103169.84
2018-02-25T16:03:30.456Z,103170.39
2018-02-25T16:06:00.024Z,103162.66
2018-02-25T16:08:28.595Z,103168.86
2018-02-25T16:10:57.169Z,103171.19
2018-02-25T16:13:25.672Z,103171.50
2018-02-25T16:15:54.256Z,103172.97
2018-02-25T16:18:23.088Z,103170.27
2018-02-25T16:20:51.656Z,103175.16
2018-02-25T16:23:20.137Z,103172.59
2018-02-25T16:25:48.676Z,103173.06
2018-02-25T16:28:17.295Z,103160.01
2018-02-25T16:30:45.930Z,103178.73
2018-02-25T16:33:14.402Z,103180.93
2018-02-25T16:35:42.858Z,103179.75
2018-02-25T16:38:11.666Z,103180.04
2018-02-25T16:40:40.603Z,103183.55
2018-02-25T16:43:10.686Z,103175.30
2018-02-25T16:45:39.324Z,103182.09
2018-02-25T16:48:09.058Z,103185.83
2018-02-25T16:50:37.674Z,103182.47
2018-02-25T16:53:06.322Z,103186.27
2018-02-25T16:55:34.942Z,103186.83
2018-02-25T16:58:03.410Z,103190.36
2018-02-25T17:00:32.134Z,103197.30
2018-02-25T17:03:00.857Z,103197.55
2018-02-25T17:05:30.256Z,103196.54
2018-02-25T17:08:01.229Z,103196.23
2018-02-25T17:10:30.476Z,103201.30
2018-02-25T17:12:59.924Z,103206.34
2018-02-25T17:15:28.542Z,103210.16
2018-02-25T17:17:57.812Z,103213.77
2018-02-25T17:20:26.727Z,103202.00
2018-02-25T17:22:55.789Z,103215.67
2018-02-25T17:25:24.715Z,103216.56
2018-02-25T17:27:53.273Z,103212.83
2018-02-25T17:30:21.903Z,103215.38
2018-02-25T17:32:51.493Z,103217.64
2018-02-25T17:35:20.656Z,103210.14
2018-02-25T17:37:49.215Z,103219.83
2018-02-25T17:40:18.094Z,103209.77
2018-02-25T17:42:46.628Z,103216.70
2018-02-25T17:45:15.047Z,103215.69
2018-02-25T17:47:43.602Z,103214.40
2018-02-25T17:50:12.470Z,103219.58
2018-02-25T17:52:41.204Z,103211.36
2018-02-25T17:55:09.901Z,103215.66
2018-02-25T17:57:38.514Z,103211.52
2018-02-25T18:00:07.135Z,103213.84
2018-02-25T18:02:35.673Z,103221.30
2018-02-25T18:05:04.159Z,103212.39
2018-02-25T18:07:32.612Z,103222.95
2018-02-25T18:10:02.212Z,103227.69
2018-02-25T18:12:30.683Z,103218.39
2018-02-25T18:14:59.166Z,103213.08
2018-02-25T18:17:28.402Z,103211.67
2018-02-25T18:19:56.880Z,103219.46
2018-02-25T18:22:25.392Z,103223.13
2018-02-25T18:24:53.937Z,103211.93
2018-02-25T18:27:22.450Z,103214.95
2018-02-25T18:29:50.913Z,103218.77
2018-02-25T18:32:19.559Z,103214.17
2018-02-25T18:34:48.070Z,103204.96
2018-02-25T18:37:16.547Z,103211.46
2018-02-25T18:39:46.226Z,103214.19
2018-02-25T18:42:14.640Z,103209.83
2018-02-25T18:44:43.393Z,103215.63
2018-02-25T18:47:11.939Z,103217.84
2018-02-25T18:49:40.498Z,103221.72
2018-02-25T18:52:09.913Z,103215.11
2018-02-25T18:54:39.210Z,103216.09
2018-02-25T18:57:08.001Z,103218.55
2018-02-25T18:59:41.256Z,103215.78
2018-02-25T19:02:10.017Z,103211.48
2018-02-25T19:04:38.537Z,103223.98
2018-02-25T19:07:09.333Z,103220.42
2018-02-25T19:09:37.976Z,103223.72
2018-02-25T19:12:07.487Z,103221.78
2018-02-25T19:14:38.599Z,103219.13
2018-02-25T19:17:07.243Z,103220.05
2018-02-25T19:19:36.531Z,103219.66
2018-02-25T19:22:05.833Z,103218.92
2018-02-25T19:24:34.597Z,103227.41
2018-02-25T19:27:04.245Z,103226.00
2018-02-25T19:29:33.652Z,103225.53
2018-02-25T19:32:02.910Z,103229.52
2018-02-25T19:34:31.805Z,103225.53
2018-02-25T19:37:06.054Z,103232.31
2018-02-25T19:39:40.298Z,103227.02
2018-02-25T19:42:11.947Z,103231.55
2018-02-25T19:44:41.002Z,103230.70
2018-02-25T19:47:10.833Z,103234.47
2018-02-25T19:49:39.778Z,103233.05
2018-02-25T19:52:08.875Z,103233.61
2018-02-25T19:54:37.747Z,103231.84
2018-02-25T19:57:06.475Z,103234.00
2018-02-25T19:59:35.134Z,103234.17
2018-02-25T20:02:03.824Z,103232.33
2018-02-25T20:04:32.617Z,103229.67
2018-02-25T20:07:01.786Z,103231.36
2018-02-25T20:09:30.465Z,103235.89
2018-02-25T20:11:59.487Z,103236.86
2018-02-25T20:14:27.996Z,103244.97
2018-02-25T20:16:57.475Z,103236.65
2018-02-25T20:19:26.347Z,103230.56
2018-02-25T20:21:54.876Z,103231.56
2018-02-25T20:24:23.288Z,103232.41
2018-02-25T20:26:52.378Z,103242.92
2018-02-25T20:29:20.802Z,103232.98
2018-02-25T20:31:49.252Z,103234.16
2018-02-25T20:34:17.729Z,103235.73
2018-02-25T20:36:46.378Z,103236.66
2018-02-25T20:39:15.454Z,103239.70
2018-02-25T20:41:45.014Z,103235.98
2018-02-25T20:44:13.445Z,103239.06
2018-02-25T20:46:41.971Z,103230.44
2018-02-25T20:49:10.590Z,103241.92
2018-02-25T20:51:39.133Z,103232.05
2018-02-25T20:54:07.615Z,103224.23
2018-02-25T20:56:36.608Z,103233.80
2018-02-25T20:59:05.468Z,103230.57
2018-02-25T21:01:34.616Z,103232.52
2018-02-25T21:04:03.507Z,103227.54
2018-02-25T21:06:32.333Z,103234.22
2018-02-25T21:09:03.092Z,103232.28
2018-02-25T21:11:32.369Z,103230.73
2018-02-25T21:14:02.153Z,103235.56
2018-02-25T21:16:30.793Z,103234.89
2018-02-25T21:18:59.425Z,103242.61
2018-02-25T21:21:30.117Z,103236.84
2018-02-25T21:23:59.166Z,103242.12
2018-02-25T21:26:28.653Z,103243.21
2018-02-25T21:28:57.109Z,103240.20
2018-02-25T21:31:25.531Z,103240.62
2018-02-25T21:33:54.864Z,103243.17
2018-02-25T21:36:23.276Z,103245.33
2018-02-25T21:38:51.730Z,103240.58
2018-02-25T21:41:20.196Z,103239.27
2018-02-25T21:43:48.623Z,103242.92
2018-02-25T21:46:17.051Z,103241.45
2018-02-25T21:48:46.563Z,103242.82
2018-02-25T21:51:16.057Z,103234.11
2018-02-25T21:53:44.573Z,103236.23
2018-02-25T21:56:19.686Z,103247.13
2018-02-25T21:58:53.714Z,103242.72
2018-02-25T22:01:29.433Z,103245.66
2018-02-25T22:03:59.422Z,103249.30
2018-02-25T22:06:27.970Z,103249.45
2018-02-25T22:08:57.285Z,103239.49
2018-02-25T22:11:25.747Z,103242.72
2018-02-25T22:13:54.221Z,103246.53
2018-02-25T22:16:22.734Z,103239.58
2018-02-25T22:18:51.164Z,103238.89
2018-02-25T22:21:19.680Z,103234.88
2018-02-25T22:23:48.384Z,103237.91
2018-02-25T22:26:16.804Z,103237.70
2018-02-25T22:28:45.209Z,103243.42
2018-02-25T22:31:13.923Z,103240.83
2018-02-25T22:33:42.361Z,103244.88
2018-02-25T22:36:10.863Z,103245.66
2018-02-25T22:38:39.471Z,103238.55
2018-02-25T22:41:07.900Z,103239.86
2018-02-25T22:43:36.349Z,103237.10
2018-02-25T22:46:05.258Z,103239.09
2018-02-25T22:48:33.674Z,103237.23
2018-02-25T22:51:02.122Z,103245.03
2018-02-25T22:53:31.741Z,103242.92
2018-02-25T22:56:00.176Z,103239.30
2018-02-25T22:58:29.032Z,103236.23
2018-02-25T23:00:58.773Z,103245.58
2018-02-25T23:03:27.192Z,103243.82
2018-02-25T23:05:55.602Z,103248.60
2018-02-25T23:08:26.854Z,103252.05
2018-02-25T23:10:55.265Z,103248.47
2018-02-25T23:13:23.679Z,103258.89
2018-02-25T23:15:52.219Z,103258.31
2018-02-25T23:18:20.676Z,103255.79
2018-02-25T23:20:49.097Z,103258.93
2018-02-25T23:23:18.550Z,103254.25
2018-02-25T23:25:46.957Z,103255.06
2018-02-25T23:28:15.361Z,103258.11
2018-02-25T23:30:44.149Z,103255.02
2018-02-25T23:33:12.587Z,103261.16
2018-02-25T23:35:41.310Z,103254.89
2018-02-25T23:38:09.772Z,103265.27
2018-02-25T23:40:38.375Z,103260.00
2018-02-25T23:43:06.834Z,103266.52
2018-02-25T23:45:35.312Z,103270.84
2018-02-25T23:48:03.822Z,103264.72
2018-02-25T23:50:33.107Z,103270.84
2018-02-25T23:53:01.613Z,103268.66
2018-02-25T23:55:30.141Z,103266.36
2018-02-25T23:57:58.675Z,103259.34
